createdAt,value
2022-10-28T00:02:44.322Z,18.17
2022-10-28T00:05:11.587Z,17.75
2022-10-28T00:07:41.229Z,17.65
2022-10-28T00:10:09.537Z,17.95
2022-10-28T00:12:37.800Z,17.80
2022-10-28T00:17:56.612Z,17.05
2022-10-28T00:23:22.908Z,17.40
2022-10-28T00:25:57.818Z,16.42
2022-10-28T00:28:37.534Z,17.02
2022-10-28T00:31:30.353Z,17.02
2022-10-28T00:34:10.666Z,16.67
2022-10-28T00:36:51.578Z,16.05
2022-10-28T00:39:41.246Z,16.63
2022-10-28T00:42:18.110Z,15.20
2022-10-28T00:45:19.683Z,15.95
2022-10-28T00:48:07.519Z,16.30
2022-10-28T00:51:04.636Z,15.05
2022-10-28T00:53:53.599Z,14.05
2022-10-28T00:59:48.302Z,14.18
2022-10-28T01:04:18.963Z,14.65
2022-10-28T01:06:03.702Z,13.98
2022-10-28T01:09:00.481Z,13.52
2022-10-28T01:12:32.512Z,13.52
2022-10-28T01:19:47.509Z,13.40
2022-10-28T01:23:07.527Z,13.13
2022-10-28T01:26:06.297Z,13.52
2022-10-28T01:29:09.880Z,12.77
2022-10-28T01:32:05.987Z,12.55
2022-10-28T01:35:22.311Z,13.52
2022-10-28T01:38:24.737Z,12.35
2022-10-28T01:41:04.121Z,12.80
2022-10-28T01:43:37.889Z,11.85
2022-10-28T01:46:14.234Z,11.75
2022-10-28T01:49:00.589Z,11.45
2022-10-28T01:51:48.937Z,11.27
2022-10-28T01:54:24.808Z,11.77
2022-10-28T01:56:58.996Z,11.57
2022-10-28T01:59:28.779Z,11.65
2022-10-28T02:04:29.868Z,11.13
2022-10-28T02:07:00.345Z,11.38
2022-10-28T02:09:41.896Z,10.32
2022-10-28T02:12:34.036Z,11.18
2022-10-28T02:15:21.049Z,10.88
2022-10-28T02:18:15.951Z,11.20
2022-10-28T02:21:12.299Z,10.48
2022-10-28T02:24:18.019Z,10.80
2022-10-28T02:26:57.691Z,10.07
2022-10-28T02:30:00.198Z,10.35
2022-10-28T02:32:40.321Z,9.93
2022-10-28T02:38:48.637Z,10.10
2022-10-28T02:41:49.741Z,9.15
2022-10-28T02:45:06.528Z,10.05
2022-10-28T02:47:52.713Z,10.15
2022-10-28T02:50:46.206Z,9.68
2022-10-28T02:53:37.107Z,9.32
2022-10-28T02:56:20.970Z,9.30
2022-10-28T02:58:55.565Z,8.88
2022-10-28T03:04:25.622Z,8.40
2022-10-28T03:06:57.893Z,8.80
2022-10-28T03:09:34.667Z,8.90
2022-10-28T03:12:09.355Z,7.95
2022-10-28T03:14:44.630Z,8.13
2022-10-28T03:17:18.129Z,8.90
2022-10-28T03:19:50.727Z,8.80
2022-10-28T03:22:23.272Z,7.78
2022-10-28T03:24:56.065Z,8.38
2022-10-28T03:27:23.557Z,8.43
2022-10-28T03:29:53.851Z,7.95
2022-10-28T03:34:50.526Z,9.18
2022-10-28T03:37:21.035Z,7.78
2022-10-28T03:39:51.236Z,7.75
2022-10-28T03:42:21.252Z,7.60
2022-10-28T03:44:53.999Z,8.32
2022-10-28T03:47:21.134Z,7.88
2022-10-28T03:49:50.110Z,8.10
2022-10-28T03:52:22.301Z,7.35
2022-10-28T03:54:59.829Z,7.53
2022-10-28T03:57:36.301Z,7.88
2022-10-28T04:00:08.513Z,7.50
2022-10-28T04:02:39.049Z,7.28
2022-10-28T04:05:08.698Z,7.30
2022-10-28T04:07:59.133Z,7.70
2022-10-28T04:10:42.613Z,6.90
2022-10-28T04:13:22.925Z,7.15
2022-10-28T04:15:59.825Z,7.65
2022-10-28T04:18:36.139Z,6.75
2022-10-28T04:21:15.238Z,6.95
2022-10-28T04:23:45.711Z,6.50
2022-10-28T04:26:21.752Z,7.68
2022-10-28T04:28:53.075Z,7.72
2022-10-28T04:35:12.877Z,6.60
2022-10-28T04:38:00.437Z,5.85
2022-10-28T04:40:57.759Z,6.38
2022-10-28T04:46:08.886Z,6.32
2022-10-28T04:48:40.066Z,6.05
2022-10-28T04:51:19.587Z,7.90
2022-10-28T04:53:49.246Z,6.35
2022-10-28T04:56:21.905Z,6.75
2022-10-28T04:58:51.734Z,5.72
2022-10-28T05:01:23.836Z,6.15
2022-10-28T05:03:51.034Z,5.68
2022-10-28T05:06:33.461Z,6.88
2022-10-28T05:09:04.039Z,5.78
2022-10-28T05:11:37.070Z,5.93
2022-10-28T05:14:05.064Z,5.78
2022-10-28T05:16:34.891Z,5.82
2022-10-28T05:19:01.961Z,6.40
2022-10-28T05:21:28.981Z,5.50
2022-10-28T05:23:55.881Z,4.97
2022-10-28T05:26:22.743Z,5.57
2022-10-28T05:29:30.865Z,5.68
2022-10-28T05:43:01.127Z,33.10
2022-10-28T05:46:50.996Z,26.55
2022-10-28T05:49:29.919Z,20.58
2022-10-28T05:54:54.975Z,18.15
2022-10-28T05:57:21.898Z,18.70
2022-10-28T05:59:48.785Z,19.40
2022-10-28T06:04:43.062Z,15.98
2022-10-28T06:07:10.145Z,15.77
2022-10-28T06:09:37.063Z,14.48
2022-10-28T06:12:04.241Z,14.07
2022-10-28T06:14:31.169Z,14.87
2022-10-28T06:16:58.020Z,12.93
2022-10-28T06:19:24.984Z,12.93
2022-10-28T06:21:51.851Z,13.45
2022-10-28T06:24:18.752Z,12.00
2022-10-28T06:26:45.700Z,12.48
2022-10-28T06:29:12.684Z,12.63
2022-10-28T06:31:40.468Z,11.40
2022-10-28T06:34:08.541Z,10.85
2022-10-28T06:36:35.592Z,10.70
2022-10-28T06:39:04.107Z,11.20
2022-10-28T06:41:36.371Z,11.65
2022-10-28T06:44:43.350Z,10.82
2022-10-28T06:47:17.299Z,9.88
2022-10-28T06:49:44.448Z,9.93
2022-10-28T06:52:21.324Z,11.82
2022-10-28T06:55:00.981Z,10.07
2022-10-28T06:57:45.369Z,9.40
2022-10-28T07:00:45.135Z,9.55
2022-10-28T07:03:51.875Z,9.52
2022-10-28T07:06:55.774Z,8.98
2022-10-28T07:09:22.861Z,8.70
2022-10-28T07:11:54.884Z,14.00
2022-10-28T07:14:39.587Z,44.53
2022-10-28T07:17:13.576Z,31.48
2022-10-28T07:19:40.536Z,25.95
2022-10-28T07:22:35.903Z,21.30
2022-10-28T07:25:45.166Z,17.63
2022-10-28T07:38:39.511Z,13.05
2022-10-28T07:41:23.755Z,12.10
2022-10-28T07:44:50.704Z,11.45
2022-10-28T07:48:30.448Z,12.00
2022-10-28T07:51:15.011Z,12.48
2022-10-28T07:54:04.519Z,10.60
2022-10-28T07:57:16.715Z,10.73
2022-10-28T08:00:20.832Z,10.75
2022-10-28T08:03:34.580Z,10.50
2022-10-28T08:09:57.295Z,9.07
2022-10-28T08:15:55.605Z,9.60
2022-10-28T08:18:55.787Z,9.20
2022-10-28T08:21:35.150Z,8.82
2022-10-28T08:24:16.894Z,8.90
2022-10-28T08:26:59.524Z,9.43
2022-10-28T08:29:58.901Z,8.88
2022-10-28T08:32:42.891Z,8.80
2022-10-28T08:36:30.711Z,35.85
2022-10-28T08:46:03.294Z,14.52
2022-10-28T08:48:53.366Z,14.25
2022-10-28T08:52:25.441Z,13.15
2022-10-28T08:55:49.649Z,12.65
2022-10-28T08:58:43.187Z,12.25
2022-10-28T09:01:41.461Z,11.57
2022-10-28T09:05:18.212Z,11.68
2022-10-28T09:08:00.215Z,11.65
2022-10-28T09:11:24.711Z,11.80
2022-10-28T09:14:32.265Z,11.38
2022-10-28T09:17:36.190Z,9.95
2022-10-28T09:24:07.289Z,10.75
2022-10-28T09:31:23.865Z,9.82
2022-10-28T09:34:18.386Z,9.23
2022-10-28T09:37:14.051Z,10.02
2022-10-28T09:46:59.155Z,9.00
2022-10-28T09:49:40.907Z,8.88
2022-10-28T09:55:58.976Z,8.35
2022-10-28T09:58:51.335Z,8.45
2022-10-28T10:13:20.242Z,8.80
2022-10-28T10:35:46.009Z,7.20
2022-10-28T10:40:04.805Z,7.70
2022-10-28T10:46:15.396Z,7.93
2022-10-28T10:53:41.946Z,7.38
2022-10-28T11:00:03.447Z,8.32
2022-10-28T11:02:58.819Z,7.03
2022-10-28T11:05:35.911Z,7.40
2022-10-28T11:08:06.740Z,6.97
2022-10-28T11:10:35.340Z,6.57
2022-10-28T11:13:15.694Z,6.60
2022-10-28T11:15:42.593Z,5.78
2022-10-28T11:18:09.467Z,5.93
2022-10-28T11:20:47.048Z,6.90
2022-10-28T11:23:42.485Z,6.47
2022-10-28T11:26:12.218Z,6.43
2022-10-28T11:28:44.584Z,6.90
2022-10-28T11:31:33.307Z,6.47
2022-10-28T11:34:39.748Z,7.07
2022-10-28T11:37:41.938Z,8.13
2022-10-28T11:40:50.870Z,6.53
2022-10-28T11:43:44.970Z,6.68
2022-10-28T11:46:22.187Z,8.38
2022-10-28T11:49:10.112Z,7.55
2022-10-28T11:52:14.441Z,7.50
2022-10-28T11:54:56.420Z,8.30
2022-10-28T11:57:43.574Z,7.00
2022-10-28T12:00:28.500Z,7.47
2022-10-28T12:03:01.958Z,10.88
2022-10-28T12:05:33.478Z,6.88
2022-10-28T12:08:26.067Z,9.73
2022-10-28T12:11:01.747Z,5.95
2022-10-28T12:13:37.744Z,7.72
2022-10-28T12:16:10.366Z,5.72
2022-10-28T12:18:51.505Z,7.45
2022-10-28T12:21:36.874Z,6.80
2022-10-28T12:24:06.921Z,8.68
2022-10-28T12:26:46.982Z,7.70
2022-10-28T12:29:30.131Z,6.88
2022-10-28T12:32:28.797Z,8.65
2022-10-28T12:35:04.782Z,7.65
2022-10-28T12:37:37.329Z,7.57
2022-10-28T12:40:25.993Z,5.95
2022-10-28T12:43:16.838Z,6.23
2022-10-28T12:45:43.959Z,8.50
2022-10-28T12:48:22.654Z,7.35
2022-10-28T12:51:10.333Z,7.90
2022-10-28T12:53:41.762Z,7.45
2022-10-28T12:56:14.359Z,7.50
2022-10-28T13:07:03.551Z,6.45
2022-10-28T13:10:25.932Z,7.68
2022-10-28T13:13:14.116Z,5.50
2022-10-28T13:15:59.320Z,6.18
2022-10-28T13:18:38.400Z,7.07
2022-10-28T13:21:31.897Z,6.43
2022-10-28T13:24:18.775Z,6.47
2022-10-28T13:26:46.028Z,5.97
2022-10-28T13:29:25.061Z,6.13
2022-10-28T13:31:52.781Z,6.45
2022-10-28T13:34:26.944Z,6.32
2022-10-28T13:37:03.487Z,7.10
2022-10-28T13:39:33.341Z,6.20
2022-10-28T13:42:21.001Z,6.60
2022-10-28T13:44:50.208Z,6.47
2022-10-28T13:47:17.063Z,5.43
2022-10-28T13:50:05.905Z,7.57
2022-10-28T13:52:34.043Z,7.03
2022-10-28T13:55:20.847Z,6.03
2022-10-28T13:57:50.312Z,7.80
2022-10-28T14:02:49.489Z,5.65
2022-10-28T14:05:25.142Z,6.05
2022-10-28T14:07:55.535Z,5.60
2022-10-28T14:10:24.293Z,5.13
2022-10-28T14:13:00.700Z,5.50
2022-10-28T14:15:37.199Z,6.28
2022-10-28T14:21:05.588Z,7.00
2022-10-28T14:23:36.607Z,8.05
2022-10-28T14:26:05.734Z,6.60
2022-10-28T14:28:32.672Z,7.28
2022-10-28T14:31:11.732Z,5.10
2022-10-28T14:34:09.497Z,6.47
2022-10-28T14:36:49.050Z,8.70
2022-10-28T14:42:29.541Z,7.32
2022-10-28T14:45:23.260Z,6.50
2022-10-28T14:48:17.364Z,7.20
2022-10-28T14:50:47.867Z,7.07
2022-10-28T14:53:20.617Z,7.25
2022-10-28T14:55:51.587Z,6.75
2022-10-28T14:58:28.938Z,6.35
2022-10-28T15:01:06.000Z,5.38
2022-10-28T15:03:33.312Z,6.13
2022-10-28T15:06:25.864Z,6.63
2022-10-28T15:08:53.918Z,5.10
2022-10-28T15:11:20.916Z,5.47
2022-10-28T15:13:54.417Z,6.72
2022-10-28T15:16:23.538Z,5.78
2022-10-28T15:18:52.466Z,5.57
2022-10-28T15:21:21.636Z,6.45
2022-10-28T15:24:01.957Z,5.88
2022-10-28T15:26:28.956Z,8.15
2022-10-28T15:28:56.015Z,6.18
2022-10-28T15:31:22.961Z,7.28
2022-10-28T15:33:49.910Z,4.88
2022-10-28T15:36:19.462Z,5.05
2022-10-28T15:38:49.117Z,5.82
2022-10-28T15:44:06.183Z,5.75
2022-10-28T15:46:34.540Z,5.03
2022-10-28T15:49:02.616Z,6.47
2022-10-28T15:51:29.507Z,7.22
2022-10-28T15:54:26.085Z,6.63
2022-10-28T15:56:55.723Z,6.80
2022-10-28T15:59:24.527Z,6.25
2022-10-28T16:04:23.511Z,5.78
2022-10-28T16:07:07.493Z,4.57
2022-10-28T16:09:36.852Z,4.80
2022-10-28T16:12:12.396Z,4.25
2022-10-28T16:14:44.062Z,5.70
2022-10-28T16:17:23.840Z,6.60
2022-10-28T16:19:54.985Z,4.30
2022-10-28T16:22:23.876Z,4.30
2022-10-28T16:24:51.792Z,24.38
2022-10-28T16:27:30.742Z,22.67
2022-10-28T16:29:57.799Z,16.65
2022-10-28T16:32:46.662Z,9.32
2022-10-28T16:35:21.730Z,7.32
2022-10-28T16:37:53.706Z,6.90
2022-10-28T16:40:49.762Z,8.60
2022-10-28T16:43:18.025Z,61.83
2022-10-28T16:45:44.921Z,52.05
2022-10-28T16:48:13.855Z,38.42
2022-10-28T16:50:42.501Z,24.58
2022-10-28T16:53:12.262Z,19.90
2022-10-28T16:55:39.229Z,17.65
2022-10-28T16:58:06.339Z,15.95
2022-10-28T17:00:33.293Z,16.00
2022-10-28T17:03:00.834Z,14.60
2022-10-28T17:05:28.071Z,14.38
2022-10-28T17:07:56.371Z,14.27
2022-10-28T17:10:23.864Z,13.63
2022-10-28T17:12:51.040Z,13.32
2022-10-28T17:15:18.515Z,12.98
2022-10-28T17:17:48.491Z,11.73
2022-10-28T17:20:15.523Z,11.23
2022-10-28T17:22:42.489Z,12.30
2022-10-28T17:25:09.846Z,11.27
2022-10-28T17:27:36.911Z,10.73
2022-10-28T17:30:04.456Z,11.00
2022-10-28T17:32:31.439Z,10.38
2022-10-28T17:34:58.382Z,10.80
2022-10-28T17:37:25.286Z,25.15
2022-10-28T17:39:52.515Z,40.05
2022-10-28T17:42:19.499Z,33.83
2022-10-28T17:44:46.354Z,23.70
2022-10-28T17:47:13.321Z,22.67
2022-10-28T17:49:40.216Z,20.25
2022-10-28T17:52:07.125Z,18.60
2022-10-28T17:54:33.997Z,15.07
2022-10-28T17:57:01.018Z,14.93
2022-10-28T17:59:27.872Z,13.70
2022-10-28T18:01:54.924Z,12.43
2022-10-28T18:04:26.563Z,12.77
2022-10-28T18:06:54.942Z,13.40
2022-10-28T18:09:22.350Z,12.10
2022-10-28T18:11:50.020Z,12.80
2022-10-28T18:14:17.795Z,11.80
2022-10-28T18:16:46.037Z,12.45
2022-10-28T18:19:13.835Z,11.68
2022-10-28T18:21:40.770Z,11.63
2022-10-28T18:24:08.007Z,11.30
2022-10-28T18:26:37.008Z,22.25
2022-10-28T18:29:05.489Z,35.38
2022-10-28T18:31:35.431Z,34.53
2022-10-28T18:34:02.583Z,33.90
2022-10-28T18:36:36.756Z,23.90
2022-10-28T18:39:05.588Z,23.25
2022-10-28T18:41:34.581Z,19.42
2022-10-28T18:44:04.515Z,17.35
2022-10-28T18:46:35.162Z,16.67
2022-10-28T18:49:02.749Z,16.23
2022-10-28T18:51:33.592Z,14.27
2022-10-28T18:54:00.586Z,16.08
2022-10-28T18:56:31.363Z,14.40
2022-10-28T18:58:58.961Z,13.32
2022-10-28T19:01:29.432Z,12.85
2022-10-28T19:03:58.562Z,29.85
2022-10-28T19:06:27.044Z,25.50
2022-10-28T19:08:55.728Z,22.50
2022-10-28T19:11:25.869Z,20.03
2022-10-28T19:13:52.773Z,17.30
2022-10-28T19:16:19.650Z,16.02
2022-10-28T19:18:46.554Z,14.55
2022-10-28T19:21:15.135Z,14.20
2022-10-28T19:23:42.914Z,15.65
2022-10-28T19:26:10.985Z,13.57
2022-10-28T19:28:39.574Z,13.60
2022-10-28T19:31:08.874Z,12.80
2022-10-28T19:33:38.441Z,12.38
2022-10-28T19:38:36.744Z,12.30
2022-10-28T19:41:14.699Z,12.02
2022-10-28T19:43:42.368Z,11.88
2022-10-28T19:46:11.857Z,12.25
2022-10-28T19:48:40.208Z,10.82
2022-10-28T19:51:08.197Z,12.13
2022-10-28T19:56:03.652Z,11.13
2022-10-28T19:58:31.849Z,10.60
2022-10-28T20:01:07.184Z,12.52
2022-10-28T20:03:35.105Z,10.90
2022-10-28T20:06:13.977Z,10.23
2022-10-28T20:08:46.405Z,11.15
2022-10-28T20:11:16.199Z,10.73
2022-10-28T20:13:45.864Z,10.63
2022-10-28T20:16:14.544Z,9.87
2022-10-28T20:18:41.772Z,9.50
2022-10-28T20:21:13.793Z,20.65
2022-10-28T20:23:44.949Z,74.80
2022-10-28T20:26:13.404Z,60.33
2022-10-28T20:28:40.712Z,42.80
2022-10-28T20:31:09.679Z,33.42
2022-10-28T20:33:38.742Z,29.60
2022-10-28T20:36:06.919Z,23.48
2022-10-28T20:38:34.060Z,23.00
2022-10-28T20:41:01.301Z,23.08
2022-10-28T20:43:29.698Z,20.58
2022-10-28T20:46:01.166Z,20.73
2022-10-28T20:48:29.211Z,20.27
2022-10-28T20:51:00.958Z,18.17
2022-10-28T20:53:33.098Z,18.23
2022-10-28T20:56:01.756Z,18.42
2022-10-28T20:58:34.662Z,17.40
2022-10-28T21:01:03.841Z,17.67
2022-10-28T21:03:30.832Z,16.42
2022-10-28T21:05:57.791Z,16.35
2022-10-28T21:08:24.739Z,16.65
2022-10-28T21:13:18.781Z,15.77
2022-10-28T21:15:45.995Z,16.30
2022-10-28T21:18:13.083Z,16.00
2022-10-28T21:20:40.318Z,58.58
2022-10-28T21:23:07.374Z,76.50
2022-10-28T21:25:34.625Z,60.95
2022-10-28T21:28:01.734Z,56.90
2022-10-28T21:30:28.990Z,42.72
2022-10-28T21:32:56.083Z,39.33
2022-10-28T21:35:23.677Z,33.38
2022-10-28T21:37:50.587Z,31.48
2022-10-28T21:40:17.596Z,31.92
2022-10-28T21:42:49.151Z,27.70
2022-10-28T21:45:17.850Z,26.80
2022-10-28T21:47:44.859Z,26.70
2022-10-28T21:50:12.009Z,23.85
2022-10-28T21:52:38.887Z,25.00
2022-10-28T21:55:14.774Z,23.05
2022-10-28T21:57:53.540Z,24.15
2022-10-28T22:00:20.799Z,23.10
2022-10-28T22:02:47.766Z,22.20
2022-10-28T22:05:14.986Z,21.60
2022-10-28T22:07:41.842Z,21.10
2022-10-28T22:10:09.053Z,19.98
2022-10-28T22:12:36.056Z,19.83
2022-10-28T22:15:03.003Z,21.25
2022-10-28T22:17:29.943Z,20.13
2022-10-28T22:19:56.853Z,19.75
2022-10-28T22:22:24.784Z,20.80
2022-10-28T22:24:52.019Z,20.48
2022-10-28T22:27:20.022Z,19.95
2022-10-28T22:29:46.943Z,96.13
2022-10-28T22:32:13.802Z,107.65
2022-10-28T22:34:40.735Z,81.03
2022-10-28T22:37:07.662Z,62.72
2022-10-28T22:39:34.620Z,48.05
2022-10-28T22:42:02.182Z,43.28
2022-10-28T22:44:29.124Z,38.17
2022-10-28T22:46:56.022Z,35.50
2022-10-28T22:49:23.112Z,36.67
2022-10-28T22:51:50.392Z,33.75
2022-10-28T22:56:47.093Z,32.88
2022-10-28T23:01:40.837Z,30.15
2022-10-28T23:04:11.744Z,29.55
2022-10-28T23:06:38.678Z,27.98
2022-10-28T23:09:05.614Z,28.98
2022-10-28T23:11:32.581Z,28.88
2022-10-28T23:13:59.502Z,28.52
2022-10-28T23:16:26.492Z,27.98
2022-10-28T23:18:53.436Z,74.55
2022-10-28T23:21:25.398Z,81.40
2022-10-28T23:23:57.280Z,63.75
2022-10-28T23:26:25.207Z,54.40
2022-10-28T23:28:53.877Z,47.58
2022-10-28T23:31:21.222Z,41.43
2022-10-28T23:33:48.137Z,39.92
2022-10-28T23:36:15.874Z,38.85
2022-10-28T23:38:43.168Z,37.22
2022-10-28T23:41:13.941Z,34.92
2022-10-28T23:43:41.791Z,35.38
2022-10-28T23:46:09.075Z,33.28
2022-10-28T23:48:36.019Z,33.60
2022-10-28T23:51:03.015Z,32.13
2022-10-28T23:53:30.821Z,32.13
2022-10-28T23:55:58.363Z,33.33
2022-10-28T23:58:25.448Z,32.22
